sensor_id;sensor_type;location;lat;lon;timestamp;pressure;altitude;pressure_sealevel;temperature;humidity
9855;BME280;4966;48.112;9.282;2023-02-28T00:00:19;95013.88;;;-2.97;80.38
9855;BME280;4966;48.112;9.282;2023-02-28T00:02:45;95034.56;;;-2.43;79.75
9855;BME280;4966;48.112;9.282;2023-02-28T00:05:13;95028.16;;;-2.64;79.78
9855;BME280;4966;48.112;9.282;2023-02-28T00:07:39;95024.03;;;-2.55;80.11
9855;BME280;4966;48.112;9.282;2023-02-28T00:10:06;95021.88;;;-2.36;79.57
9855;BME280;4966;48.112;9.282;2023-02-28T00:12:33;95019.50;;;-2.54;80.05
9855;BME280;4966;48.112;9.282;2023-02-28T00:14:59;95016.78;;;-2.60;79.16
9855;BME280;4966;48.112;9.282;2023-02-28T00:17:24;95021.13;;;-2.53;79.08
9855;BME280;4966;48.112;9.282;2023-02-28T00:19:51;95016.44;;;-2.85;78.67
9855;BME280;4966;48.112;9.282;2023-02-28T00:22:20;95025.78;;;-2.44;79.28
9855;BME280;4966;48.112;9.282;2023-02-28T00:24:46;95025.69;;;-2.05;78.24
9855;BME280;4966;48.112;9.282;2023-02-28T00:27:12;95033.94;;;-2.50;79.37
9855;BME280;4966;48.112;9.282;2023-02-28T00:29:38;95023.41;;;-2.18;77.56
9855;BME280;4966;48.112;9.282;2023-02-28T00:32:04;95019.41;;;-1.94;76.30
9855;BME280;4966;48.112;9.282;2023-02-28T00:34:29;95022.59;;;-2.19;76.96
9855;BME280;4966;48.112;9.282;2023-02-28T00:36:55;95015.75;;;-2.37;77.66
9855;BME280;4966;48.112;9.282;2023-02-28T00:39:20;95019.88;;;-2.46;78.37
9855;BME280;4966;48.112;9.282;2023-02-28T00:41:46;95018.06;;;-1.96;76.47
9855;BME280;4966;48.112;9.282;2023-02-28T00:44:11;95025.50;;;-2.42;77.50
9855;BME280;4966;48.112;9.282;2023-02-28T00:46:37;95026.56;;;-2.65;78.31
9855;BME280;4966;48.112;9.282;2023-02-28T00:49:02;95022.91;;;-2.15;77.26
9855;BME280;4966;48.112;9.282;2023-02-28T00:51:28;95026.81;;;-2.01;77.13
9855;BME280;4966;48.112;9.282;2023-02-28T00:53:53;95020.63;;;-2.28;76.32
9855;BME280;4966;48.112;9.282;2023-02-28T00:56:19;95014.84;;;-2.42;77.21
9855;BME280;4966;48.112;9.282;2023-02-28T00:58:44;95023.00;;;-2.32;77.02
9855;BME280;4966;48.112;9.282;2023-02-28T01:01:10;95017.84;;;-2.39;77.21
9855;BME280;4966;48.112;9.282;2023-02-28T01:03:35;95016.22;;;-2.40;77.13
9855;BME280;4966;48.112;9.282;2023-02-28T01:06:00;95023.50;;;-2.74;77.83
9855;BME280;4966;48.112;9.282;2023-02-28T01:08:26;95024.66;;;-2.48;77.23
9855;BME280;4966;48.112;9.282;2023-02-28T01:10:52;95026.19;;;-2.52;76.52
9855;BME280;4966;48.112;9.282;2023-02-28T01:13:18;95017.72;;;-2.49;77.14
9855;BME280;4966;48.112;9.282;2023-02-28T01:15:55;95018.19;;;-2.30;77.09
9855;BME280;4966;48.112;9.282;2023-02-28T01:18:21;95012.13;;;-2.25;76.83
9855;BME280;4966;48.112;9.282;2023-02-28T01:20:47;94994.22;;;-2.74;76.45
9855;BME280;4966;48.112;9.282;2023-02-28T01:23:13;94991.75;;;-2.59;76.69
9855;BME280;4966;48.112;9.282;2023-02-28T01:25:38;95000.91;;;-2.71;77.38
9855;BME280;4966;48.112;9.282;2023-02-28T01:28:04;94993.84;;;-2.17;75.75
9855;BME280;4966;48.112;9.282;2023-02-28T01:30:31;94995.03;;;-2.29;76.26
9855;BME280;4966;48.112;9.282;2023-02-28T01:32:57;94992.75;;;-2.43;75.99
9855;BME280;4966;48.112;9.282;2023-02-28T01:35:22;94991.56;;;-2.52;76.51
9855;BME280;4966;48.112;9.282;2023-02-28T01:37:48;94990.72;;;-2.58;76.58
9855;BME280;4966;48.112;9.282;2023-02-28T01:40:13;94981.47;;;-2.50;76.98
9855;BME280;4966;48.112;9.282;2023-02-28T01:42:39;94983.22;;;-2.39;75.58
9855;BME280;4966;48.112;9.282;2023-02-28T01:45:26;94991.13;;;-2.22;75.59
9855;BME280;4966;48.112;9.282;2023-02-28T01:47:55;94985.16;;;-2.56;75.74
9855;BME280;4966;48.112;9.282;2023-02-28T01:50:25;94986.91;;;-2.18;75.95
9855;BME280;4966;48.112;9.282;2023-02-28T01:52:54;94986.66;;;-2.38;75.27
9855;BME280;4966;48.112;9.282;2023-02-28T01:55:22;94981.22;;;-2.48;74.70
9855;BME280;4966;48.112;9.282;2023-02-28T01:57:52;94982.00;;;-2.26;74.34
9855;BME280;4966;48.112;9.282;2023-02-28T02:00:22;94982.09;;;-1.94;73.69
9855;BME280;4966;48.112;9.282;2023-02-28T02:02:54;94986.34;;;-1.93;73.00
9855;BME280;4966;48.112;9.282;2023-02-28T02:05:23;94971.81;;;-2.56;73.95
9855;BME280;4966;48.112;9.282;2023-02-28T02:07:52;94976.03;;;-2.60;73.85
9855;BME280;4966;48.112;9.282;2023-02-28T02:10:35;94979.41;;;-2.43;74.28
9855;BME280;4966;48.112;9.282;2023-02-28T02:13:08;94983.41;;;-2.45;74.87
9855;BME280;4966;48.112;9.282;2023-02-28T02:16:08;94982.56;;;-1.97;72.98
9855;BME280;4966;48.112;9.282;2023-02-28T02:18:52;94972.84;;;-2.35;72.43
9855;BME280;4966;48.112;9.282;2023-02-28T02:24:08;94981.47;;;-1.74;71.76
9855;BME280;4966;48.112;9.282;2023-02-28T02:37:41;94978.31;;;-2.25;71.29
9855;BME280;4966;48.112;9.282;2023-02-28T02:40:10;94975.09;;;-2.00;71.15
9855;BME280;4966;48.112;9.282;2023-02-28T02:42:44;94973.59;;;-1.90;71.06
9855;BME280;4966;48.112;9.282;2023-02-28T02:47:56;94980.13;;;-2.03;70.64
9855;BME280;4966;48.112;9.282;2023-02-28T02:50:28;94985.56;;;-1.93;70.00
9855;BME280;4966;48.112;9.282;2023-02-28T02:52:57;94973.41;;;-2.33;70.00
9855;BME280;4966;48.112;9.282;2023-02-28T02:55:24;94980.66;;;-2.50;71.10
9855;BME280;4966;48.112;9.282;2023-02-28T02:57:58;94970.81;;;-2.72;71.35
9855;BME280;4966;48.112;9.282;2023-02-28T03:00:33;94985.69;;;-2.32;70.84
9855;BME280;4966;48.112;9.282;2023-02-28T03:03:01;94974.28;;;-2.00;69.68
9855;BME280;4966;48.112;9.282;2023-02-28T03:05:30;94970.44;;;-2.37;69.81
9855;BME280;4966;48.112;9.282;2023-02-28T03:07:57;94969.38;;;-2.08;69.03
9855;BME280;4966;48.112;9.282;2023-02-28T03:10:36;94977.34;;;-2.14;70.10
9855;BME280;4966;48.112;9.282;2023-02-28T03:16:16;94969.06;;;-2.17;69.49
9855;BME280;4966;48.112;9.282;2023-02-28T03:26:58;94973.50;;;-2.23;69.10
9855;BME280;4966;48.112;9.282;2023-02-28T03:29:34;94965.78;;;-1.97;68.42
9855;BME280;4966;48.112;9.282;2023-02-28T03:34:38;94969.63;;;-2.37;70.36
9855;BME280;4966;48.112;9.282;2023-02-28T03:37:12;94962.19;;;-2.13;70.14
9855;BME280;4966;48.112;9.282;2023-02-28T03:39:47;94956.31;;;-1.83;68.31
9855;BME280;4966;48.112;9.282;2023-02-28T03:42:18;94965.78;;;-2.24;68.75
9855;BME280;4966;48.112;9.282;2023-02-28T03:47:17;94962.47;;;-2.09;68.84
9855;BME280;4966;48.112;9.282;2023-02-28T03:52:31;94967.31;;;-2.55;69.69
9855;BME280;4966;48.112;9.282;2023-02-28T03:55:02;94970.13;;;-2.40;69.23
9855;BME280;4966;48.112;9.282;2023-02-28T03:57:57;94965.25;;;-2.48;68.76
9855;BME280;4966;48.112;9.282;2023-02-28T04:00:45;94974.19;;;-2.32;69.25
9855;BME280;4966;48.112;9.282;2023-02-28T04:03:12;94962.94;;;-2.40;69.88
9855;BME280;4966;48.112;9.282;2023-02-28T04:05:51;94964.72;;;-2.23;69.32
9855;BME280;4966;48.112;9.282;2023-02-28T04:08:17;94966.91;;;-2.42;69.85
9855;BME280;4966;48.112;9.282;2023-02-28T04:10:47;94963.06;;;-2.51;69.55
9855;BME280;4966;48.112;9.282;2023-02-28T04:13:15;94964.38;;;-2.32;69.94
9855;BME280;4966;48.112;9.282;2023-02-28T04:15:41;94954.97;;;-2.62;69.72
9855;BME280;4966;48.112;9.282;2023-02-28T04:18:06;94967.28;;;-2.33;70.02
9855;BME280;4966;48.112;9.282;2023-02-28T04:20:31;94967.19;;;-2.17;68.62
9855;BME280;4966;48.112;9.282;2023-02-28T04:22:57;94975.72;;;-2.42;69.70
9855;BME280;4966;48.112;9.282;2023-02-28T04:25:22;94968.34;;;-2.79;70.16
9855;BME280;4966;48.112;9.282;2023-02-28T04:27:47;94963.19;;;-2.41;70.34
9855;BME280;4966;48.112;9.282;2023-02-28T04:30:13;94968.34;;;-2.07;69.77
9855;BME280;4966;48.112;9.282;2023-02-28T04:32:38;94967.50;;;-2.35;70.16
9855;BME280;4966;48.112;9.282;2023-02-28T04:35:04;94962.94;;;-2.40;69.85
9855;BME280;4966;48.112;9.282;2023-02-28T04:37:29;94955.44;;;-2.43;69.48
9855;BME280;4966;48.112;9.282;2023-02-28T04:39:55;94971.81;;;-2.07;69.85
9855;BME280;4966;48.112;9.282;2023-02-28T04:42:20;94967.75;;;-2.15;69.43
9855;BME280;4966;48.112;9.282;2023-02-28T04:44:46;94968.00;;;-2.16;68.81
9855;BME280;4966;48.112;9.282;2023-02-28T04:47:12;94971.97;;;-2.19;69.37
9855;BME280;4966;48.112;9.282;2023-02-28T04:49:37;94973.22;;;-1.99;68.87
9855;BME280;4966;48.112;9.282;2023-02-28T04:52:03;94972.66;;;-2.01;68.45
9855;BME280;4966;48.112;9.282;2023-02-28T04:54:29;94977.44;;;-1.76;67.40
9855;BME280;4966;48.112;9.282;2023-02-28T04:56:55;94989.72;;;-1.75;68.32
9855;BME280;4966;48.112;9.282;2023-02-28T04:59:20;94980.78;;;-1.91;69.15
9855;BME280;4966;48.112;9.282;2023-02-28T05:01:47;94980.47;;;-1.95;69.17
9855;BME280;4966;48.112;9.282;2023-02-28T05:04:14;94979.38;;;-1.99;68.37
9855;BME280;4966;48.112;9.282;2023-02-28T05:06:39;94985.97;;;-2.28;68.61
9855;BME280;4966;48.112;9.282;2023-02-28T05:09:04;94982.03;;;-2.48;69.41
9855;BME280;4966;48.112;9.282;2023-02-28T05:11:32;94981.09;;;-2.37;69.72
9855;BME280;4966;48.112;9.282;2023-02-28T05:14:02;94985.84;;;-2.17;70.58
9855;BME280;4966;48.112;9.282;2023-02-28T05:16:28;94985.38;;;-2.58;70.03
9855;BME280;4966;48.112;9.282;2023-02-28T05:18:54;94989.16;;;-2.53;70.43
9855;BME280;4966;48.112;9.282;2023-02-28T05:23:53;94978.72;;;-2.33;70.00
9855;BME280;4966;48.112;9.282;2023-02-28T05:26:20;94977.19;;;-2.29;69.87
9855;BME280;4966;48.112;9.282;2023-02-28T05:28:45;94981.16;;;-2.31;70.80
9855;BME280;4966;48.112;9.282;2023-02-28T05:31:11;94982.28;;;-2.27;70.22
9855;BME280;4966;48.112;9.282;2023-02-28T05:33:37;94983.78;;;-2.37;70.64
9855;BME280;4966;48.112;9.282;2023-02-28T05:36:04;94985.00;;;-2.66;70.57
9855;BME280;4966;48.112;9.282;2023-02-28T05:38:29;94996.03;;;-2.08;70.70
9855;BME280;4966;48.112;9.282;2023-02-28T05:40:54;95000.78;;;-2.38;69.90
9855;BME280;4966;48.112;9.282;2023-02-28T05:43:20;94991.19;;;-2.39;70.18
9855;BME280;4966;48.112;9.282;2023-02-28T05:45:45;95003.22;;;-2.36;70.64
9855;BME280;4966;48.112;9.282;2023-02-28T05:48:11;94996.03;;;-1.86;69.69
9855;BME280;4966;48.112;9.282;2023-02-28T05:50:36;94997.81;;;-1.92;69.39
9855;BME280;4966;48.112;9.282;2023-02-28T05:53:02;94998.06;;;-2.43;69.96
9855;BME280;4966;48.112;9.282;2023-02-28T05:55:28;95018.19;;;-2.52;72.16
9855;BME280;4966;48.112;9.282;2023-02-28T05:57:53;95012.81;;;-2.57;70.99
9855;BME280;4966;48.112;9.282;2023-02-28T06:00:19;95014.09;;;-2.16;70.72
9855;BME280;4966;48.112;9.282;2023-02-28T06:02:45;95005.06;;;-1.87;69.08
9855;BME280;4966;48.112;9.282;2023-02-28T06:05:15;95006.56;;;-1.97;69.59
9855;BME280;4966;48.112;9.282;2023-02-28T06:07:41;95008.09;;;-2.28;70.78
9855;BME280;4966;48.112;9.282;2023-02-28T06:10:07;95004.13;;;-1.76;69.41
9855;BME280;4966;48.112;9.282;2023-02-28T06:12:33;95017.63;;;-2.10;69.85
9855;BME280;4966;48.112;9.282;2023-02-28T06:14:58;95011.41;;;-1.94;69.57
9855;BME280;4966;48.112;9.282;2023-02-28T06:17:23;95009.88;;;-2.11;70.44
9855;BME280;4966;48.112;9.282;2023-02-28T06:19:49;95021.78;;;-2.19;69.78
9855;BME280;4966;48.112;9.282;2023-02-28T06:22:14;95020.78;;;-1.91;69.69
9855;BME280;4966;48.112;9.282;2023-02-28T06:24:39;95030.66;;;-2.14;70.53
9855;BME280;4966;48.112;9.282;2023-02-28T06:27:05;95034.44;;;-2.09;69.75
9855;BME280;4966;48.112;9.282;2023-02-28T06:29:32;95035.31;;;-2.26;71.72
9855;BME280;4966;48.112;9.282;2023-02-28T06:31:58;95034.59;;;-1.94;70.43
9855;BME280;4966;48.112;9.282;2023-02-28T06:34:23;95038.84;;;-1.71;69.71
9855;BME280;4966;48.112;9.282;2023-02-28T06:36:50;95041.34;;;-1.59;69.53
9855;BME280;4966;48.112;9.282;2023-02-28T06:39:16;95048.41;;;-1.48;68.71
9855;BME280;4966;48.112;9.282;2023-02-28T06:41:42;95042.56;;;-1.72;69.80
9855;BME280;4966;48.112;9.282;2023-02-28T06:44:12;95047.06;;;-2.00;68.90
9855;BME280;4966;48.112;9.282;2023-02-28T06:46:39;95049.53;;;-1.66;68.86
9855;BME280;4966;48.112;9.282;2023-02-28T06:49:06;95041.97;;;-1.79;69.36
9855;BME280;4966;48.112;9.282;2023-02-28T06:51:34;95063.69;;;-1.65;69.26
9855;BME280;4966;48.112;9.282;2023-02-28T06:54:00;95050.53;;;-1.77;69.47
9855;BME280;4966;48.112;9.282;2023-02-28T06:56:26;95051.81;;;-1.80;70.17
9855;BME280;4966;48.112;9.282;2023-02-28T06:58:51;95057.13;;;-1.80;69.70
9855;BME280;4966;48.112;9.282;2023-02-28T07:01:18;95057.09;;;-1.85;69.96
9855;BME280;4966;48.112;9.282;2023-02-28T07:03:45;95052.22;;;-1.93;70.74
9855;BME280;4966;48.112;9.282;2023-02-28T07:06:10;95068.13;;;-1.76;69.92
9855;BME280;4966;48.112;9.282;2023-02-28T07:08:35;95064.19;;;-1.41;68.67
9855;BME280;4966;48.112;9.282;2023-02-28T07:11:01;95060.63;;;-2.01;70.65
9855;BME280;4966;48.112;9.282;2023-02-28T07:13:27;95070.06;;;-1.94;70.06
9855;BME280;4966;48.112;9.282;2023-02-28T07:16:01;95067.59;;;-2.00;70.42
9855;BME280;4966;48.112;9.282;2023-02-28T07:18:28;95062.75;;;-1.81;70.36
9855;BME280;4966;48.112;9.282;2023-02-28T07:20:54;95069.44;;;-1.52;69.55
9855;BME280;4966;48.112;9.282;2023-02-28T07:23:20;95075.88;;;-1.47;67.98
9855;BME280;4966;48.112;9.282;2023-02-28T07:25:45;95075.81;;;-1.25;68.89
9855;BME280;4966;48.112;9.282;2023-02-28T07:28:11;95077.34;;;-1.02;67.85
9855;BME280;4966;48.112;9.282;2023-02-28T07:30:37;95078.28;;;-1.19;68.05
9855;BME280;4966;48.112;9.282;2023-02-28T07:33:03;95079.75;;;-1.01;68.11
9855;BME280;4966;48.112;9.282;2023-02-28T07:35:29;95079.66;;;-0.79;67.48
9855;BME280;4966;48.112;9.282;2023-02-28T07:37:54;95082.66;;;-1.35;68.61
9855;BME280;4966;48.112;9.282;2023-02-28T07:40:19;95071.81;;;-1.55;68.08
9855;BME280;4966;48.112;9.282;2023-02-28T07:42:45;95078.50;;;-1.53;69.11
9855;BME280;4966;48.112;9.282;2023-02-28T07:45:11;95077.22;;;-1.45;68.25
9855;BME280;4966;48.112;9.282;2023-02-28T07:47:38;95083.91;;;-1.15;68.09
9855;BME280;4966;48.112;9.282;2023-02-28T07:50:04;95079.00;;;-0.91;67.85
9855;BME280;4966;48.112;9.282;2023-02-28T07:52:30;95082.38;;;-1.38;68.03
9855;BME280;4966;48.112;9.282;2023-02-28T07:54:55;95085.63;;;-1.58;68.39
9855;BME280;4966;48.112;9.282;2023-02-28T07:57:21;95090.06;;;-1.69;71.03
9855;BME280;4966;48.112;9.282;2023-02-28T07:59:47;95086.31;;;-1.95;69.64
9855;BME280;4966;48.112;9.282;2023-02-28T08:02:14;95082.34;;;-1.43;70.00
9855;BME280;4966;48.112;9.282;2023-02-28T08:04:40;95093.44;;;-1.79;69.61
9855;BME280;4966;48.112;9.282;2023-02-28T08:07:05;95093.38;;;-1.84;70.97
9855;BME280;4966;48.112;9.282;2023-02-28T08:09:31;95091.09;;;-1.48;68.53
9855;BME280;4966;48.112;9.282;2023-02-28T08:11:56;95095.34;;;-1.20;67.95
9855;BME280;4966;48.112;9.282;2023-02-28T08:14:22;95096.91;;;-0.92;68.00
9855;BME280;4966;48.112;9.282;2023-02-28T08:16:47;95102.13;;;-0.70;67.12
9855;BME280;4966;48.112;9.282;2023-02-28T08:19:13;95092.63;;;-0.93;66.57
9855;BME280;4966;48.112;9.282;2023-02-28T08:21:38;95089.41;;;-0.95;68.38
9855;BME280;4966;48.112;9.282;2023-02-28T08:24:05;95092.91;;;-0.89;67.49
9855;BME280;4966;48.112;9.282;2023-02-28T08:26:30;95087.91;;;-1.13;67.27
9855;BME280;4966;48.112;9.282;2023-02-28T08:28:56;95095.44;;;-0.72;67.22
9855;BME280;4966;48.112;9.282;2023-02-28T08:31:21;95097.31;;;-0.30;65.40
9855;BME280;4966;48.112;9.282;2023-02-28T08:33:48;95096.34;;;-0.61;65.29
9855;BME280;4966;48.112;9.282;2023-02-28T08:36:18;95098.44;;;-0.69;65.94
9855;BME280;4966;48.112;9.282;2023-02-28T08:38:44;95104.97;;;-1.19;67.96
9855;BME280;4966;48.112;9.282;2023-02-28T08:41:11;95100.09;;;-0.95;67.42
9855;BME280;4966;48.112;9.282;2023-02-28T08:43:37;95101.81;;;-1.11;67.54
9855;BME280;4966;48.112;9.282;2023-02-28T08:46:03;95106.59;;;-1.13;67.81
9855;BME280;4966;48.112;9.282;2023-02-28T08:48:30;95101.22;;;-1.18;68.15
9855;BME280;4966;48.112;9.282;2023-02-28T08:53:21;95113.19;;;-1.25;67.56
9855;BME280;4966;48.112;9.282;2023-02-28T08:55:46;95105.88;;;-1.62;67.79
9855;BME280;4966;48.112;9.282;2023-02-28T08:58:12;95116.00;;;-1.10;67.27
9855;BME280;4966;48.112;9.282;2023-02-28T09:00:37;95121.81;;;-0.86;67.59
9855;BME280;4966;48.112;9.282;2023-02-28T09:03:02;95118.88;;;-1.17;67.99
9855;BME280;4966;48.112;9.282;2023-02-28T09:05:28;95117.72;;;-1.26;68.71
9855;BME280;4966;48.112;9.282;2023-02-28T09:07:55;95120.03;;;-0.70;66.99
9855;BME280;4966;48.112;9.282;2023-02-28T09:10:20;95116.56;;;-0.71;65.67
9855;BME280;4966;48.112;9.282;2023-02-28T09:12:45;95127.75;;;-0.36;65.35
9855;BME280;4966;48.112;9.282;2023-02-28T09:15:12;95124.66;;;-0.18;64.93
9855;BME280;4966;48.112;9.282;2023-02-28T09:17:37;95131.53;;;-0.70;65.87
9855;BME280;4966;48.112;9.282;2023-02-28T09:20:03;95144.16;;;-0.23;65.71
9855;BME280;4966;48.112;9.282;2023-02-28T09:22:30;95127.06;;;-0.22;64.58
9855;BME280;4966;48.112;9.282;2023-02-28T09:24:55;95133.59;;;-0.77;66.27
9855;BME280;4966;48.112;9.282;2023-02-28T09:27:20;95150.06;;;-0.58;65.93
9855;BME280;4966;48.112;9.282;2023-02-28T09:29:46;95142.88;;;-0.10;64.54
9855;BME280;4966;48.112;9.282;2023-02-28T09:32:11;95153.81;;;-0.16;64.29
9855;BME280;4966;48.112;9.282;2023-02-28T09:34:37;95147.34;;;-0.63;64.18
9855;BME280;4966;48.112;9.282;2023-02-28T09:37:02;95144.88;;;-0.70;65.29
9855;BME280;4966;48.112;9.282;2023-02-28T09:39:27;95155.44;;;-0.53;64.93
9855;BME280;4966;48.112;9.282;2023-02-28T09:41:55;95160.53;;;-0.14;64.65
9855;BME280;4966;48.112;9.282;2023-02-28T09:46:57;95162.31;;;-0.94;65.55
9855;BME280;4966;48.112;9.282;2023-02-28T09:49:28;95150.06;;;-0.90;66.95
9855;BME280;4966;48.112;9.282;2023-02-28T09:52:00;95152.09;;;-1.02;67.28
9855;BME280;4966;48.112;9.282;2023-02-28T09:54:30;95159.72;;;-0.14;65.50
9855;BME280;4966;48.112;9.282;2023-02-28T10:02:13;95148.91;;;-0.67;67.11
9855;BME280;4966;48.112;9.282;2023-02-28T10:10:10;95154.75;;;-0.38;64.34
9855;BME280;4966;48.112;9.282;2023-02-28T10:12:43;95146.06;;;-0.55;64.67
9855;BME280;4966;48.112;9.282;2023-02-28T10:15:14;95157.44;;;-0.38;65.17
9855;BME280;4966;48.112;9.282;2023-02-28T10:17:43;95155.56;;;-0.37;65.09
9855;BME280;4966;48.112;9.282;2023-02-28T10:20:12;95167.00;;;-0.42;65.09
9855;BME280;4966;48.112;9.282;2023-02-28T10:22:52;95159.59;;;-0.30;65.06
9855;BME280;4966;48.112;9.282;2023-02-28T10:25:28;95162.50;;;-0.36;65.05
9855;BME280;4966;48.112;9.282;2023-02-28T10:28:15;95172.28;;;-0.52;66.15
9855;BME280;4966;48.112;9.282;2023-02-28T10:30:51;95169.72;;;-0.37;64.70
9855;BME280;4966;48.112;9.282;2023-02-28T10:35:45;95172.97;;;0.13;64.46
9855;BME280;4966;48.112;9.282;2023-02-28T10:38:25;95176.34;;;-0.07;62.79
9855;BME280;4966;48.112;9.282;2023-02-28T10:40:51;95186.50;;;-0.09;64.33
9855;BME280;4966;48.112;9.282;2023-02-28T10:43:20;95182.34;;;0.15;64.39
9855;BME280;4966;48.112;9.282;2023-02-28T10:45:53;95182.75;;;-0.03;63.71
9855;BME280;4966;48.112;9.282;2023-02-28T11:03:44;95182.56;;;-0.34;65.95
9855;BME280;4966;48.112;9.282;2023-02-28T11:06:16;95190.97;;;0.28;63.94
9855;BME280;4966;48.112;9.282;2023-02-28T11:08:53;95187.47;;;-0.20;64.05
9855;BME280;4966;48.112;9.282;2023-02-28T11:11:21;95198.56;;;-0.02;64.16
9855;BME280;4966;48.112;9.282;2023-02-28T11:13:51;95197.78;;;-0.02;63.08
9855;BME280;4966;48.112;9.282;2023-02-28T11:16:17;95195.66;;;-0.70;65.41
9855;BME280;4966;48.112;9.282;2023-02-28T11:18:50;95194.00;;;-0.06;66.06
9855;BME280;4966;48.112;9.282;2023-02-28T11:21:25;95182.31;;;-0.32;64.78
9855;BME280;4966;48.112;9.282;2023-02-28T11:24:22;95194.44;;;0.33;64.10
9855;BME280;4966;48.112;9.282;2023-02-28T11:26:42;95180.22;;;-0.95;65.50
9855;BME280;4966;48.112;9.282;2023-02-28T11:29:18;95180.72;;;-0.66;65.90
9855;BME280;4966;48.112;9.282;2023-02-28T11:34:27;95186.41;;;-0.57;65.31
9855;BME280;4966;48.112;9.282;2023-02-28T11:36:55;95190.63;;;0.19;64.92
9855;BME280;4966;48.112;9.282;2023-02-28T11:39:22;95182.78;;;0.02;64.21
9855;BME280;4966;48.112;9.282;2023-02-28T11:56:33;95192.47;;;0.76;62.83
9855;BME280;4966;48.112;9.282;2023-02-28T11:59:51;95187.94;;;0.77;61.39
9855;BME280;4966;48.112;9.282;2023-02-28T12:02:35;95198.16;;;0.17;62.42
9855;BME280;4966;48.112;9.282;2023-02-28T12:06:09;95192.81;;;0.22;62.67
9855;BME280;4966;48.112;9.282;2023-02-28T12:13:26;95186.88;;;0.10;63.39
9855;BME280;4966;48.112;9.282;2023-02-28T12:16:18;95182.34;;;0.15;63.04
9855;BME280;4966;48.112;9.282;2023-02-28T12:22:33;95178.69;;;0.32;62.17
9855;BME280;4966;48.112;9.282;2023-02-28T12:27:13;95178.53;;;0.69;61.17
9855;BME280;4966;48.112;9.282;2023-02-28T12:29:50;95178.06;;;0.82;60.79
9855;BME280;4966;48.112;9.282;2023-02-28T12:32:25;95187.06;;;-0.02;61.78
9855;BME280;4966;48.112;9.282;2023-02-28T12:35:02;95169.84;;;0.31;63.08
9855;BME280;4966;48.112;9.282;2023-02-28T12:37:57;95163.09;;;0.24;61.13
9855;BME280;4966;48.112;9.282;2023-02-28T12:40:32;95178.50;;;0.59;60.95
9855;BME280;4966;48.112;9.282;2023-02-28T12:43:02;95175.97;;;1.20;60.77
9855;BME280;4966;48.112;9.282;2023-02-28T12:45:40;95188.69;;;0.62;60.37
9855;BME280;4966;48.112;9.282;2023-02-28T12:48:09;95178.59;;;0.84;61.25
9855;BME280;4966;48.112;9.282;2023-02-28T12:50:40;95177.13;;;0.41;60.78
9855;BME280;4966;48.112;9.282;2023-02-28T12:55:48;95174.50;;;0.61;60.89
9855;BME280;4966;48.112;9.282;2023-02-28T12:58:35;95169.28;;;1.13;59.53
9855;BME280;4966;48.112;9.282;2023-02-28T13:09:52;95181.41;;;0.52;60.87
9855;BME280;4966;48.112;9.282;2023-02-28T13:12:19;95179.84;;;0.56;61.58
9855;BME280;4966;48.112;9.282;2023-02-28T13:14:46;95174.09;;;1.11;59.62
9855;BME280;4966;48.112;9.282;2023-02-28T13:17:14;95162.59;;;1.25;60.05
9855;BME280;4966;48.112;9.282;2023-02-28T13:22:19;95159.13;;;2.57;55.26
9855;BME280;4966;48.112;9.282;2023-02-28T13:24:51;95153.97;;;2.65;55.38
9855;BME280;4966;48.112;9.282;2023-02-28T13:27:38;95157.69;;;3.24;52.96
9855;BME280;4966;48.112;9.282;2023-02-28T13:31:24;95155.28;;;3.57;53.74
9855;BME280;4966;48.112;9.282;2023-02-28T13:36:31;95149.19;;;4.77;48.76
9855;BME280;4966;48.112;9.282;2023-02-28T13:39:02;95146.09;;;4.83;49.42
9855;BME280;4966;48.112;9.282;2023-02-28T13:44:20;95146.34;;;5.44;48.02
9855;BME280;4966;48.112;9.282;2023-02-28T13:57:37;95144.84;;;6.03;46.27
9855;BME280;4966;48.112;9.282;2023-02-28T14:00:16;95150.06;;;6.27;45.85
9855;BME280;4966;48.112;9.282;2023-02-28T14:03:10;95146.75;;;6.03;45.43
9855;BME280;4966;48.112;9.282;2023-02-28T14:05:39;95146.31;;;5.95;46.20
9855;BME280;4966;48.112;9.282;2023-02-28T14:10:44;95148.47;;;6.68;43.93
9855;BME280;4966;48.112;9.282;2023-02-28T14:15:41;95140.69;;;6.52;46.05
9855;BME280;4966;48.112;9.282;2023-02-28T14:18:19;95141.47;;;6.39;45.22
9855;BME280;4966;48.112;9.282;2023-02-28T14:20:46;95142.78;;;6.28;45.48
9855;BME280;4966;48.112;9.282;2023-02-28T14:23:48;95139.69;;;6.62;44.44
9855;BME280;4966;48.112;9.282;2023-02-28T14:31:54;95131.53;;;7.62;41.44
9855;BME280;4966;48.112;9.282;2023-02-28T14:34:43;95133.78;;;8.45;40.32
9855;BME280;4966;48.112;9.282;2023-02-28T14:37:18;95129.41;;;8.84;39.75
9855;BME280;4966;48.112;9.282;2023-02-28T14:39:44;95123.09;;;9.76;38.78
9855;BME280;4966;48.112;9.282;2023-02-28T14:42:33;95138.41;;;9.72;37.67
9855;BME280;4966;48.112;9.282;2023-02-28T14:44:59;95128.53;;;10.49;36.26
9855;BME280;4966;48.112;9.282;2023-02-28T14:47:28;95135.75;;;11.55;34.08
9855;BME280;4966;48.112;9.282;2023-02-28T14:49:55;95131.94;;;10.37;35.47
9855;BME280;4966;48.112;9.282;2023-02-28T14:52:27;95144.00;;;9.06;37.28
9855;BME280;4966;48.112;9.282;2023-02-28T14:54:57;95134.56;;;9.12;37.20
9855;BME280;4966;48.112;9.282;2023-02-28T14:57:31;95136.03;;;10.52;35.37
9855;BME280;4966;48.112;9.282;2023-02-28T15:00:16;95134.25;;;10.95;35.34
9855;BME280;4966;48.112;9.282;2023-02-28T15:02:42;95136.72;;;10.40;34.53
9855;BME280;4966;48.112;9.282;2023-02-28T15:07:46;95135.59;;;8.67;38.51
9855;BME280;4966;48.112;9.282;2023-02-28T15:10:25;95134.75;;;9.33;38.01
9855;BME280;4966;48.112;9.282;2023-02-28T15:12:58;95146.44;;;9.42;37.40
9855;BME280;4966;48.112;9.282;2023-02-28T15:15:42;95143.72;;;7.01;41.23
9855;BME280;4966;48.112;9.282;2023-02-28T15:18:12;95143.56;;;6.70;43.00
9855;BME280;4966;48.112;9.282;2023-02-28T15:20:41;95146.81;;;7.08;42.41
9855;BME280;4966;48.112;9.282;2023-02-28T15:23:07;95152.00;;;6.41;44.03
9855;BME280;4966;48.112;9.282;2023-02-28T15:25:33;95142.28;;;5.93;45.07
9855;BME280;4966;48.112;9.282;2023-02-28T15:27:59;95140.94;;;5.95;45.61
9855;BME280;4966;48.112;9.282;2023-02-28T15:30:29;95147.69;;;6.26;44.94
9855;BME280;4966;48.112;9.282;2023-02-28T15:35:33;95151.59;;;5.35;47.04
9855;BME280;4966;48.112;9.282;2023-02-28T15:40:44;95149.28;;;4.66;48.04
9855;BME280;4966;48.112;9.282;2023-02-28T15:43:18;95155.91;;;4.07;49.92
9855;BME280;4966;48.112;9.282;2023-02-28T15:45:49;95155.22;;;4.20;49.81
9855;BME280;4966;48.112;9.282;2023-02-28T15:48:23;95160.91;;;3.60;50.77
9855;BME280;4966;48.112;9.282;2023-02-28T15:50:56;95154.66;;;3.94;49.99
9855;BME280;4966;48.112;9.282;2023-02-28T15:53:28;95152.34;;;3.53;51.26
9855;BME280;4966;48.112;9.282;2023-02-28T15:55:58;95157.19;;;3.51;51.36
9855;BME280;4966;48.112;9.282;2023-02-28T15:58:26;95165.47;;;3.26;52.30
9855;BME280;4966;48.112;9.282;2023-02-28T16:01:24;95156.94;;;3.82;51.83
9855;BME280;4966;48.112;9.282;2023-02-28T16:03:53;95158.63;;;3.04;53.03
9855;BME280;4966;48.112;9.282;2023-02-28T16:06:41;95168.50;;;3.14;53.12